Time;durP1;ratioP1;P1;durP2;ratioP2;P2;SDS_P1;SDS_P2;PMS_P1;PMS_P2;Temp;Humidity;BMP_temperature;BMP_pressure;BME280_temperature;BME280_humidity;BME280_pressure;Samples;Min_cycle;Max_cycle;Signal;HPM_P1;HPM_P2
2021/12/14 05:20:18;;;;;;;77.68;32.60;;;;;;;-5.10;100.00;101457.56;5555612;32;270272;-87
2021/12/14 05:23:24;;;;;;;82.40;33.95;;;;;;;-5.18;100.00;101465.97;5543587;32;34064;-87
2021/12/14 05:26:27;;;;;;;73.50;32.03;;;;;;;-5.17;100.00;101462.56;5543379;32;34533;-87
2021/12/14 05:29:32;;;;;;;74.72;31.48;;;;;;;-5.19;100.00;101461.63;5544118;32;34564;-87
2021/12/14 05:32:38;;;;;;;60.30;27.35;;;;;;;-5.23;100.00;101464.94;5544261;32;34146;-87
2021/12/14 05:35:45;;;;;;;61.33;28.62;;;;;;;-5.27;100.00;101468.28;5543830;32;34119;-87
2021/12/14 05:39:06;;;;;;;60.42;27.92;;;;;;;-5.20;100.00;101471.91;5544327;32;33829;-87
2021/12/14 05:45:56;;;;;;;58.50;27.90;;;;;;;-5.26;100.00;101482.97;5544528;32;34074;-86
2021/12/14 05:49:05;;;;;;;63.20;27.77;;;;;;;-5.25;100.00;101491.63;5545961;32;33630;-87
2021/12/14 05:52:28;;;;;;;63.60;28.25;;;;;;;-5.30;100.00;101494.03;5543270;32;34154;-87
2021/12/14 05:55:39;;;;;;;57.60;27.87;;;;;;;-5.39;100.00;101492.00;5548681;32;33470;-86
2021/12/14 05:58:43;;;;;;;57.60;26.40;;;;;;;-5.34;100.00;101495.63;5556624;32;34601;-86
2021/12/14 06:01:47;;;;;;;54.03;26.10;;;;;;;-5.35;100.00;101495.56;5551722;32;33906;-87
2021/12/14 06:04:52;;;;;;;57.45;23.10;;;;;;;-5.40;100.00;101503.19;5546308;32;35326;-87
2021/12/14 06:07:56;;;;;;;48.10;22.37;;;;;;;-5.36;100.00;101496.41;5535958;32;34575;-87
2021/12/14 06:10:59;;;;;;;47.17;22.23;;;;;;;-5.44;100.00;101498.72;5547464;32;34365;-86
2021/12/14 06:14:04;;;;;;;51.25;23.35;;;;;;;-5.48;100.00;101500.31;5543477;32;33826;-87
2021/12/14 06:17:11;;;;;;;49.90;22.33;;;;;;;-5.50;100.00;101493.34;5527460;32;34711;-87
2021/12/14 06:20:19;;;;;;;48.17;23.65;;;;;;;-5.49;100.00;101493.41;5528239;32;34486;-87
2021/12/14 06:23:28;;;;;;;52.17;21.98;;;;;;;-5.42;100.00;101502.25;5540440;32;33811;-85
2021/12/14 06:26:42;;;;;;;44.65;21.70;;;;;;;-5.44;100.00;101502.19;5526617;32;34127;-85
2021/12/14 06:29:59;;;;;;;52.17;21.30;;;;;;;-5.46;100.00;101515.91;5525607;32;33950;-85
2021/12/14 06:33:08;;;;;;;54.17;22.58;;;;;;;-5.34;100.00;101511.16;5515386;32;33932;-86
2021/12/14 06:36:51;;;;;;;54.63;22.40;;;;;;;-5.36;100.00;101510.22;5523561;32;34061;-86
2021/12/14 06:40:03;;;;;;;49.03;21.40;;;;;;;-5.19;100.00;101512.50;5518664;32;34432;-86
2021/12/14 06:43:15;;;;;;;66.07;22.92;;;;;;;-5.19;100.00;101504.75;5531539;32;34180;-85
2021/12/14 06:46:26;;;;;;;81.78;24.33;;;;;;;-4.97;100.00;101515.78;5532681;32;33730;-87
2021/12/14 06:49:29;;;;;;;104.97;24.10;;;;;;;-5.03;100.00;101511.31;5540570;32;33851;-86
2021/12/14 06:52:32;;;;;;;142.57;27.52;;;;;;;-4.93;100.00;101510.75;5537766;32;34490;-87
2021/12/14 06:55:41;;;;;;;110.70;24.48;;;;;;;-4.97;100.00;101519.28;5613358;26;34272;-89
2021/12/14 06:59:09;;;;;;;65.23;23.87;;;;;;;-4.71;100.00;101511.47;5528194;32;34264;-89
2021/12/14 07:02:13;;;;;;;63.60;23.42;;;;;;;-4.65;100.00;101514.25;5521880;32;34592;-89
2021/12/14 07:05:23;;;;;;;95.38;25.88;;;;;;;-4.53;100.00;101518.06;5526639;32;34609;-88
2021/12/14 07:08:27;;;;;;;56.80;23.83;;;;;;;-4.52;100.00;101515.50;5521936;32;34422;-87
2021/12/14 07:11:30;;;;;;;61.47;23.33;;;;;;;-4.46;100.00;101518.25;5518963;32;33944;-87
2021/12/14 07:14:45;;;;;;;54.40;23.25;;;;;;;-4.44;100.00;101520.06;5529107;32;34019;-88
2021/12/14 07:18:00;;;;;;;50.83;22.62;;;;;;;-4.41;100.00;101518.44;5531898;32;34826;-87
2021/12/14 07:21:03;;;;;;;43.97;21.17;;;;;;;-4.24;100.00;101513.75;5531116;32;33946;-88
2021/12/14 07:24:21;;;;;;;47.62;20.88;;;;;;;-4.22;100.00;101527.63;5536449;32;34297;-85
2021/12/14 07:27:26;;;;;;;46.72;20.48;;;;;;;-3.96;100.00;101524.03;5536907;32;34018;-90
2021/12/14 07:30:34;;;;;;;45.97;20.88;;;;;;;-4.01;100.00;101530.81;5548507;32;34413;-86
2021/12/14 07:33:44;;;;;;;44.13;21.23;;;;;;;-3.89;100.00;101532.88;5564607;32;33880;-87
2021/12/14 07:36:47;;;;;;;55.35;22.13;;;;;;;-3.78;100.00;101531.44;5559285;32;35390;-87
2021/12/14 07:39:51;;;;;;;56.85;21.23;;;;;;;-3.72;100.00;101534.22;5557875;32;34886;-86
2021/12/14 07:43:14;;;;;;;56.63;24.02;;;;;;;-3.61;100.00;101539.72;5562811;32;33946;-86
2021/12/14 07:46:23;;;;;;;57.83;21.77;;;;;;;-3.92;100.00;101547.50;5555606;32;34123;-86
2021/12/14 07:49:33;;;;;;;49.80;22.50;;;;;;;-3.91;100.00;101535.44;5557997;32;35052;-86
2021/12/14 07:52:37;;;;;;;49.58;21.85;;;;;;;-3.80;100.00;101535.72;5560489;32;34359;-86
2021/12/14 07:55:43;;;;;;;58.33;21.60;;;;;;;-3.64;100.00;101528.37;5547995;32;35211;-87
2021/12/14 07:58:48;;;;;;;53.40;21.20;;;;;;;-3.58;100.00;101534.59;5554890;32;34343;-87
2021/12/14 08:02:12;;;;;;;51.63;22.48;;;;;;;-3.48;100.00;101533.12;5545491;32;34087;-88
2021/12/14 08:05:35;;;;;;;61.65;21.30;;;;;;;-3.23;100.00;101535.50;5555259;32;35715;-87
2021/12/14 08:11:47;;;;;;;48.80;21.45;;;;;;;-3.09;100.00;101533.25;5537131;32;33984;-86
2021/12/14 08:15:10;;;;;;;62.28;21.33;;;;;;;-3.04;100.00;101529.94;5544309;32;33839;-88
2021/12/14 08:18:23;;;;;;;82.00;23.90;;;;;;;-3.08;100.00;101538.50;5535749;32;33718;-93
2021/12/14 08:21:26;;;;;;;67.70;23.10;;;;;;;-3.22;100.00;101538.13;5532946;32;34299;-88
2021/12/14 08:24:29;;;;;;;53.42;22.08;;;;;;;-3.34;100.00;101541.28;5539518;32;34388;-87
2021/12/14 08:27:32;;;;;;;65.65;24.35;;;;;;;-3.29;100.00;101542.31;5537804;32;34236;-86
2021/12/14 08:30:39;;;;;;;67.10;23.25;;;;;;;-3.12;100.00;101528.87;5536660;32;33960;-86
2021/12/14 08:33:42;;;;;;;62.17;23.92;;;;;;;-2.93;100.00;101529.34;5559966;32;35085;-86
2021/12/14 08:36:50;;;;;;;77.20;27.20;;;;;;;-2.75;100.00;101531.50;5542605;32;34152;-88
2021/12/14 08:40:07;;;;;;;71.20;27.52;;;;;;;-2.98;100.00;101537.88;5546516;32;34753;-87
2021/12/14 08:43:23;;;;;;;73.78;24.73;;;;;;;-2.77;100.00;101534.06;5547743;32;34239;-87
2021/12/14 08:46:30;;;;;;;55.05;24.27;;;;;;;-2.49;100.00;101542.50;5542861;32;34142;-87
2021/12/14 08:49:34;;;;;;;52.33;21.33;;;;;;;-2.33;100.00;101546.34;5535380;32;33850;-86
2021/12/14 08:52:38;;;;;;;57.20;24.00;;;;;;;-2.15;100.00;101537.19;5535650;32;33609;-87
2021/12/14 08:55:46;;;;;;;56.00;24.52;;;;;;;-2.19;100.00;101544.03;5546687;32;34191;-86
2021/12/14 08:58:50;;;;;;;61.83;25.52;;;;;;;-2.41;100.00;101540.09;5533435;32;33673;-90
2021/12/14 09:01:56;;;;;;;62.00;25.37;;;;;;;-2.22;100.00;101536.16;5534179;32;33874;-90
2021/12/14 09:05:13;;;;;;;60.20;25.08;;;;;;;-1.86;100.00;101538.66;5564161;26;34123;-89
2021/12/14 09:08:20;;;;;;;62.28;25.80;;;;;;;-1.93;100.00;101533.31;5550315;32;33635;-89
2021/12/14 09:11:25;;;;;;;62.38;25.02;;;;;;;-1.94;100.00;101539.38;5553083;32;34582;-88
2021/12/14 09:14:30;;;;;;;50.95;23.98;;;;;;;-1.92;100.00;101521.16;5558279;32;34239;-87
2021/12/14 09:17:33;;;;;;;48.87;23.55;;;;;;;-1.78;100.00;101518.84;5563148;32;34149;-88
2021/12/14 09:20:49;;;;;;;48.20;23.10;;;;;;;-1.66;100.00;101521.69;5537070;32;34596;-88
2021/12/14 09:24:00;;;;;;;51.72;23.35;;;;;;;-1.61;100.00;101523.53;5535932;32;33851;-92
2021/12/14 09:27:10;;;;;;;50.80;23.55;;;;;;;-1.24;100.00;101529.41;5518635;32;34083;-89
2021/12/14 09:30:15;;;;;;;49.80;22.87;;;;;;;-1.31;99.42;101519.75;5543984;32;34472;-88
2021/12/14 09:33:19;;;;;;;43.33;20.88;;;;;;;-0.58;97.28;101519.19;5548780;32;34422;-89
2021/12/14 09:36:22;;;;;;;42.55;20.75;;;;;;;0.75;87.97;101526.88;5539267;32;33808;-87
2021/12/14 09:39:32;;;;;;;40.00;21.08;;;;;;;3.24;74.59;101516.62;5546047;32;34102;-87
2021/12/14 09:42:37;;;;;;;40.50;20.58;;;;;;;6.17;63.38;101502.34;5549751;32;34084;-86
2021/12/14 09:45:44;;;;;;;38.25;19.80;;;;;;;10.06;51.91;101497.75;5555444;32;34316;-86
2021/12/14 09:48:54;;;;;;;38.95;20.90;;;;;;;11.63;44.09;101497.13;5537874;32;35125;-84
2021/12/14 09:52:08;;;;;;;39.78;20.58;;;;;;;13.41;38.70;101488.34;5535971;32;34804;-85
2021/12/14 09:55:16;;;;;;;39.40;21.20;;;;;;;13.81;37.99;101486.59;5554326;32;33803;-85
2021/12/14 09:58:29;;;;;;;37.13;21.50;;;;;;;14.74;34.83;101480.47;5554950;32;35331;-84
2021/12/14 10:01:41;;;;;;;37.35;21.77;;;;;;;15.25;33.68;101479.75;5548969;32;35174;-84
2021/12/14 10:04:53;;;;;;;37.40;22.45;;;;;;;15.28;33.60;101466.22;5558423;32;34349;-86
2021/12/14 10:08:01;;;;;;;38.80;22.62;;;;;;;13.17;37.51;101470.69;5555636;32;34815;-85
2021/12/14 10:11:12;;;;;;;40.65;22.67;;;;;;;9.86;44.24;101470.03;5559664;32;34984;-85
2021/12/14 10:14:19;;;;;;;44.67;23.48;;;;;;;7.06;53.54;101472.03;5544677;32;35315;-85
2021/12/14 10:17:24;;;;;;;41.35;23.23;;;;;;;5.91;59.10;101478.94;5551162;32;33773;-85
2021/12/14 10:20:33;;;;;;;40.20;21.33;;;;;;;4.47;63.77;101478.56;5569932;32;35028;-85
2021/12/14 10:23:37;;;;;;;38.92;21.55;;;;;;;3.06;70.71;101471.16;5574971;32;33902;-86
2021/12/14 10:26:44;;;;;;;47.58;23.75;;;;;;;2.30;75.96;101473.72;5561228;32;34760;-89
2021/12/14 10:29:49;;;;;;;50.60;23.35;;;;;;;2.45;75.75;101464.19;5561306;32;33650;-89
2021/12/14 10:32:52;;;;;;;51.75;23.25;;;;;;;2.19;77.14;101470.19;5560763;32;35360;-85
2021/12/14 10:36:02;;;;;;;50.55;24.37;;;;;;;2.23;77.53;101467.63;5543235;32;34464;-85
2021/12/14 10:46:01;;;;;;;48.45;23.83;;;;;;;2.31;78.02;101472.00;5536349;32;33986;-84
2021/12/14 10:49:06;;;;;;;44.95;23.27;;;;;;;2.89;76.46;101462.44;5538919;32;34100;-85
2021/12/14 10:52:18;;;;;;;47.65;24.10;;;;;;;2.77;77.59;101464.19;5532857;32;34360;-87
2021/12/14 10:55:27;;;;;;;48.08;23.77;;;;;;;2.66;77.00;101463.31;5539376;32;33823;-87
2021/12/14 10:58:30;;;;;;;49.15;25.55;;;;;;;2.66;77.28;101458.94;5544182;32;35711;-87
2021/12/14 11:01:38;;;;;;;52.50;25.95;;;;;;;2.79;77.30;101456.31;5535150;32;34212;-88
2021/12/14 11:04:53;;;;;;;47.95;25.35;;;;;;;3.37;75.72;101460.63;5534169;32;34170;-87
2021/12/14 11:07:57;;;;;;;52.55;24.80;;;;;;;3.18;75.37;101462.41;5534366;32;33683;-87
2021/12/14 11:11:02;;;;;;;47.78;23.42;;;;;;;2.21;79.38;101460.63;5551386;32;34093;-88
2021/12/14 11:14:09;;;;;;;42.40;23.12;;;;;;;2.70;78.27;101465.06;5542367;32;34360;-89
2021/12/14 11:21:18;;;;;;;43.65;23.65;;;;;;;4.34;70.05;101454.97;5536208;32;34093;-88
2021/12/14 11:24:33;;;;;;;42.62;22.33;;;;;;;3.20;74.00;101450.19;5444905;32;34332;-87
2021/12/14 11:27:44;;;;;;;43.38;23.48;;;;;;;2.73;77.22;101443.22;5438599;32;33923;-87
2021/12/14 11:30:55;;;;;;;40.60;21.60;;;;;;;2.83;77.06;101445.84;5449684;32;34396;-87
2021/12/14 11:34:08;;;;;;;40.20;22.20;;;;;;;2.90;76.89;101443.22;5453785;32;34620;-87
2021/12/14 11:37:19;;;;;;;39.67;22.23;;;;;;;3.11;75.62;101442.31;5449301;32;35001;-87
2021/12/14 11:40:27;;;;;;;38.05;21.15;;;;;;;2.62;76.84;101441.47;5453418;32;34865;-87
2021/12/14 11:43:31;;;;;;;39.38;21.08;;;;;;;2.25;78.68;101444.03;5460939;32;33577;-87
2021/12/14 11:47:08;;;;;;;35.55;20.85;;;;;;;2.37;79.19;101432.72;5439683;32;34338;-87
2021/12/14 11:50:35;;;;;;;42.10;22.25;;;;;;;2.07;79.91;101442.25;5448900;32;34279;-88
2021/12/14 11:53:50;;;;;;;40.30;22.25;;;;;;;1.73;81.42;101437.78;5442602;32;35237;-89
2021/12/14 11:56:53;;;;;;;39.85;21.83;;;;;;;2.21;80.01;101435.31;5565492;32;34388;-89
2021/12/14 12:00:05;;;;;;;41.75;23.17;;;;;;;2.19;79.90;101425.69;5561671;32;33611;-89
2021/12/14 12:03:20;;;;;;;45.03;22.87;;;;;;;2.13;81.61;101431.81;5549845;32;34451;-88
2021/12/14 12:10:03;;;;;;;44.47;23.10;;;;;;;2.54;81.09;101431.00;5541879;32;34627;-89
2021/12/14 12:13:06;;;;;;;46.50;23.70;;;;;;;2.42;81.57;101425.75;5548991;32;34419;-88
2021/12/14 12:16:23;;;;;;;41.33;22.48;;;;;;;2.09;82.39;101430.03;5551978;32;34775;-88
2021/12/14 12:19:29;;;;;;;37.55;20.88;;;;;;;2.04;81.75;101427.41;5537345;32;33829;-88
2021/12/14 12:22:57;;;;;;;33.60;19.25;;;;;;;1.94;81.98;101430.88;5530668;32;34131;-87
2021/12/14 12:26:08;;;;;;;34.30;18.20;;;;;;;1.77;81.53;101429.09;5522888;32;33599;-87
2021/12/14 12:29:16;;;;;;;39.75;21.02;;;;;;;1.83;80.96;101434.34;5533088;32;34253;-91
2021/12/14 12:32:28;;;;;;;38.90;20.80;;;;;;;1.94;80.89;101429.13;5554558;32;33416;-89
2021/12/14 12:35:37;;;;;;;42.75;22.42;;;;;;;1.75;82.02;101422.94;5579700;26;34241;-88
2021/12/14 12:38:42;;;;;;;38.63;20.85;;;;;;;1.59;82.68;101422.03;5523001;32;34032;-90
2021/12/14 12:41:55;;;;;;;39.70;20.50;;;;;;;1.71;82.24;101423.84;5511022;32;34132;-89
2021/12/14 12:44:57;;;;;;;39.00;20.52;;;;;;;1.84;80.38;101420.37;5490997;32;34057;-90
2021/12/14 12:48:01;;;;;;;36.35;20.20;;;;;;;1.83;80.46;101426.50;5490521;32;33817;-89
2021/12/14 12:51:04;;;;;;;40.55;20.40;;;;;;;1.82;80.32;101429.94;5503747;32;33720;-89
2021/12/14 12:54:18;;;;;;;36.72;19.20;;;;;;;1.82;79.94;101436.94;5510845;32;34502;-88
2021/12/14 12:57:33;;;;;;;38.15;19.90;;;;;;;1.97;78.96;101421.28;5510079;32;34193;-89
2021/12/14 13:00:45;;;;;;;46.47;23.10;;;;;;;1.97;79.83;101417.81;5502089;32;34545;-89
2021/12/14 13:04:07;;;;;;;47.30;23.27;;;;;;;1.90;81.58;101416.03;5497613;32;34256;-89
2021/12/14 13:07:10;;;;;;;39.85;22.55;;;;;;;1.85;81.74;101410.78;5508552;32;34532;-88
2021/12/14 13:10:32;;;;;;;44.55;22.80;;;;;;;1.86;82.37;101399.47;5513159;32;33819;-88
2021/12/14 13:13:51;;;;;;;39.60;22.37;;;;;;;1.75;82.59;101407.25;5510062;32;34337;-89
2021/12/14 13:16:56;;;;;;;42.35;22.48;;;;;;;1.73;82.76;101416.84;5503667;32;34215;-89
2021/12/14 13:20:31;;;;;;;43.63;22.62;;;;;;;1.71;82.87;101414.22;781691;30;21416;-90
2021/12/14 13:23:43;;;;;;;39.63;22.35;;;;;;;1.71;82.99;101411.59;5529067;32;32500;-90
2021/12/14 13:30:43;;;;;;;41.72;22.80;;;;;;;1.67;82.74;101411.59;2573398;26;20107;-90
2021/12/14 13:37:28;;;;;;;40.45;22.70;;;;;;;1.59;83.28;101415.06;5629105;26;20075;-89
2021/12/14 13:40:39;;;;;;;44.47;24.00;;;;;;;1.61;83.52;101418.53;5570619;32;34500;-90
2021/12/14 13:43:45;;;;;;;48.90;25.52;;;;;;;1.56;84.47;101422.03;5578999;31;34237;-88
2021/12/14 13:46:48;;;;;;;49.65;25.02;;;;;;;1.39;88.45;101422.81;5568524;26;34397;-88
2021/12/14 13:49:54;;;;;;;48.83;24.33;;;;;;;1.37;89.36;101416.69;5551820;32;33771;-88
2021/12/14 13:52:58;;;;;;;47.92;24.98;;;;;;;1.34;90.07;101421.91;5560285;31;34187;-87
2021/12/14 13:56:10;;;;;;;49.92;25.80;;;;;;;1.33;89.88;101415.81;5566317;31;35292;-87
2021/12/14 13:59:15;;;;;;;47.65;25.50;;;;;;;1.31;90.02;101417.53;5557722;32;34759;-87
2021/12/14 14:02:18;;;;;;;51.78;25.30;;;;;;;1.29;90.07;101426.22;5567502;32;33277;-88
2021/12/14 14:05:22;;;;;;;48.75;24.90;;;;;;;1.27;90.21;101420.13;5562983;32;33963;-88
2021/12/14 14:08:48;;;;;;;45.47;25.30;;;;;;;1.09;91.92;101419.13;5556875;32;33725;-88
2021/12/14 14:12:11;;;;;;;52.27;26.63;;;;;;;0.90;93.83;101410.31;5573366;32;33904;-89
2021/12/14 14:15:17;;;;;;;48.58;25.08;;;;;;;0.76;95.26;101423.28;5554516;32;33870;-88
2021/12/14 14:18:34;;;;;;;59.25;25.83;;;;;;;0.68;96.12;101425.81;5571445;32;33719;-89
2021/12/14 14:21:37;;;;;;;51.95;26.05;;;;;;;0.66;96.47;101419.72;5570138;31;35033;-89
2021/12/14 14:24:44;;;;;;;54.60;25.55;;;;;;;0.61;96.34;101416.19;5572340;32;33881;-89
2021/12/14 14:28:11;;;;;;;50.83;25.40;;;;;;;0.57;96.52;101417.00;5550901;32;34801;-89
2021/12/14 14:31:47;;;;;;;51.37;25.23;;;;;;;0.48;97.38;101426.53;5572362;32;34485;-88
2021/12/14 14:34:55;;;;;;;48.87;25.83;;;;;;;0.33;98.70;101421.13;5573363;32;34983;-89
2021/12/14 14:38:34;;;;;;;45.03;23.95;;;;;;;0.24;99.17;101422.81;5572088;32;34509;-89
2021/12/14 14:42:11;;;;;;;48.13;23.90;;;;;;;0.18;99.29;101429.69;5570085;32;35192;-87
2021/12/14 14:45:28;;;;;;;46.30;23.35;;;;;;;0.07;100.00;101434.81;5586612;26;33731;-87
2021/12/14 14:49:02;;;;;;;41.50;21.60;;;;;;;0.02;99.95;101439.97;5576125;32;36500;-88
2021/12/14 14:52:16;;;;;;;33.20;17.30;;;;;;;-0.10;99.09;101445.06;5571876;32;35257;-87
2021/12/14 14:55:35;;;;;;;33.95;18.87;;;;;;;-0.01;97.78;101447.75;5571772;32;34353;-87
2021/12/14 14:59:15;;;;;;;29.08;16.92;;;;;;;-0.11;95.78;101449.38;5576603;32;34926;-88
2021/12/14 15:02:45;;;;;;;32.53;17.80;;;;;;;-0.21;94.54;101450.16;5573740;32;33959;-88
2021/12/14 15:05:53;;;;;;;34.28;17.83;;;;;;;-0.30;94.65;101454.37;5570858;32;34350;-87
2021/12/14 15:09:08;;;;;;;31.98;17.85;;;;;;;-0.41;95.19;101455.97;5576766;31;34967;-88
2021/12/14 15:12:19;;;;;;;34.28;18.12;;;;;;;-0.49;95.69;101457.59;5553927;32;32138;-87
2021/12/14 15:15:27;;;;;;;36.47;19.50;;;;;;;-0.59;96.28;101449.69;5560472;31;34672;-87
2021/12/14 15:19:03;;;;;;;35.45;19.08;;;;;;;-0.66;96.84;101455.62;5541891;32;34767;-87
2021/12/14 15:22:13;;;;;;;38.08;20.15;;;;;;;-0.76;97.55;101461.59;5555215;32;34029;-87
2021/12/14 15:25:28;;;;;;;40.58;20.52;;;;;;;-0.84;98.14;101458.84;5554561;32;34345;-88
2021/12/14 15:28:31;;;;;;;46.55;21.45;;;;;;;-0.79;98.86;101459.81;5551764;32;34997;-91
2021/12/14 15:31:34;;;;;;;42.75;20.98;;;;;;;-0.93;99.58;101462.19;5553983;32;35853;-92
2021/12/14 15:35:04;;;;;;;40.12;20.83;;;;;;;-1.01;100.00;101456.00;5551069;32;34857;-92
2021/12/14 15:38:29;;;;;;;44.58;21.42;;;;;;;-0.96;100.00;101462.12;5550543;32;34573;-88
2021/12/14 15:41:37;;;;;;;38.33;19.60;;;;;;;-1.04;100.00;101466.34;5557465;32;34564;-88
2021/12/14 15:44:40;;;;;;;41.25;21.05;;;;;;;-1.14;100.00;101470.53;5552154;32;34602;-87
2021/12/14 15:48:07;;;;;;;44.17;22.25;;;;;;;-1.12;100.00;101466.22;5550905;32;33820;-87
2021/12/14 15:51:18;;;;;;;43.92;21.20;;;;;;;-1.06;100.00;101468.06;5547919;32;34355;-87
2021/12/14 15:54:35;;;;;;;39.88;20.23;;;;;;;-1.23;100.00;101471.25;5550595;32;34820;-88
2021/12/14 15:57:38;;;;;;;41.25;20.17;;;;;;;-1.32;100.00;101463.31;5550147;32;34657;-87
2021/12/14 16:00:41;;;;;;;40.95;21.05;;;;;;;-1.39;100.00;101459.72;5550971;32;34351;-88
2021/12/14 16:03:45;;;;;;;40.63;20.83;;;;;;;-1.46;100.00;101455.25;5548622;32;34875;-88
2021/12/14 16:06:51;;;;;;;41.37;21.75;;;;;;;-1.48;100.00;101457.81;5549032;32;34352;-87
2021/12/14 16:10:04;;;;;;;45.38;22.27;;;;;;;-1.44;100.00;101454.44;5556708;32;34784;-87
2021/12/14 16:16:32;;;;;;;49.85;24.17;;;;;;;-1.49;100.00;101462.16;5569791;32;33985;-91
2021/12/14 16:19:34;;;;;;;47.80;23.95;;;;;;;-1.50;100.00;101469.94;5569673;32;35169;-87
2021/12/14 16:22:39;;;;;;;46.22;22.85;;;;;;;-1.62;100.00;101473.19;5572741;32;33896;-88
2021/12/14 16:25:44;;;;;;;52.70;25.45;;;;;;;-1.67;100.00;101467.00;5576535;32;34074;-88
2021/12/14 16:28:51;;;;;;;55.12;26.87;;;;;;;-1.71;100.00;101468.69;5581723;32;34287;-87
2021/12/14 16:31:54;;;;;;;55.35;26.62;;;;;;;-1.77;100.00;101472.06;5582718;32;34068;-88
